New Market, Virginia
Current Conditions -  °F | °C
As of 10:35 AM on Thursday 23 Oct 2014 (Local Time) from K8W2 Reporting Station
Broken Clouds Broken Clouds  
Wind Chill: 55°   Ceiling: 3500
Heat Index: 55°   Visibility: 10mi
Dew Point: 42°   Wind: 9mph
Humidity: 62%   Direction: 10°N
Pressure: 30.03"   Gusts: NA
Location:  38.65°N, 78.67°W
Report Text: K8W2 231435Z AUTO 01008KT 10SM BKN035 BKN042 13/05 A3003 RMK AO1 T01260054
Loading
Personal Weather Stations






























Interactive Weather Map
Tropical Storm Tracking
New forecast layout! Learn more

10-Day Weather Forecast

Advertisements
Track Severe Weather on mobile